Bradley, Arkansas
Current Conditions -  °F | °C
As of 1:01 PM on Friday 21 Nov 2014 (Local Time) from KTXK Reporting Station
Haze Haze  
Wind Chill: 58°   Ceiling: 3100
Heat Index: 58°   Visibility: 6mi
Dew Point: 57°   Wind: 7mph
Humidity: 97%   Direction: 150°SSE
Pressure: 30.18"   Gusts: NA
Location:  33.1°N, 93.65°W
Report Text: KTXK 211901Z 15006KT 6SM BR SCT008 SCT013 OVC031 14/14 A3018 RMK AO2 T01440139
Loading
Personal Weather Stations






























Interactive Weather Map New forecast layout! Learn more

10-Day Weather Forecast

Advertisements
Track Severe Weather on mobile